Home > Products > Valid Products > MTR

000
SAUS46 KPDT 011258
MTRMEH
METAR KMEH 011256Z AUTO 00000KT 6SM -RA BR BKN006 OVC010 04/03 A2969
RMK AO2 SLP061 P0002 T00390033





000
SAUS46 KPDT 011225
MTRMEH
SPECI KMEH 011224Z AUTO 00000KT 7SM -RA BKN009 OVC014 04/03 A2970
RMK AO2 CIG 006V012 P0001 T00390028





000
SAUS46 KPDT 011218
MTRMEH
SPECI KMEH 011217Z AUTO 00000KT 9SM -RA SCT009 OVC014 04/03 A2970
RMK AO2 P0000 T00390028





000
SAUS46 KPDT 011158
MTRMEH
METAR KMEH 011156Z AUTO 00000KT 10SM -RA OVC013 04/03 A2970 RMK AO2
RAB18 SLP063 P0001 60015 70032 T00390033 10056 20039 56018





000
SAUS46 KPDT 011059
MTRMEH
METAR KMEH 011056Z AUTO 00000KT 10SM OVC012 04/03 A2971 RMK AO2
RAB31E48 SLP063 P0000 T00440033





000
SAUS46 KPDT 010958
MTRMEH
METAR KMEH 010956Z AUTO 00000KT 10SM OVC013 04/03 A2973 RMK AO2
RAE08 SLP070 P0000 T00440033





000
SAUS46 KPDT 010859
MTRMEH
METAR KMEH 010856Z AUTO 00000KT 10SM -RA OVC012 04/04 A2976 RMK AO2
SLP081 P0001 60014 T00440039 56012





000
SAUS46 KPDT 010843
MTRMEH
SPECI KMEH 010842Z AUTO 00000KT 10SM -RA OVC010 05/04 A2976 RMK AO2
CIG 006V012 P0001 T00500039





000
SAUS46 KPDT 010813
MTRMEH
SPECI KMEH 010812Z AUTO 00000KT 10SM -RA BKN006 OVC010 05/04 A2976
RMK AO2 CIG 003V009 P0000 T00500039





000
SAUS46 KPDT 010803 COR
MTRMEH
METAR KMEH 010756Z AUTO 00000KT 10SM -RA BKN004 OVC008 05/04 A2977
RMK AO2 SLP082 P0004 T00500044 401500050





000
SAUS46 KPDT 010753 COR
MTRMEH
SPECI KMEH 010746Z AUTO 00000KT 7SM -RA BKN004 BKN008 OVC036 05/04
A2977 RMK AO2 P0004 T00500044





000
SAUS46 KPDT 010740
MTRMEH
SPECI KMEH 010736Z AUTO 00000KT 5SM -RA BR FEW004 BKN021 OVC036
06/04 A2977 RMK AO2 P0003 T00560044





000
SAUS46 KPDT 010703 COR
MTRMEH
METAR KMEH 010656Z AUTO 00000KT 10SM -RA FEW005 SCT010 OVC044 06/04
A2977 RMK AO2 SLP076 P0009 T00560044





000
SAUS46 KPDT 010604
MTRMEH
SPECI KMEH 010603Z AUTO 00000KT 5SM -RA BR SCT007 SCT032 OVC041
06/04 A2980 RMK AO2 P0002 T00560044





000
SAUS46 KPDT 010557
MTRMEH
METAR KMEH 010556Z AUTO 00000KT 5SM RA BR BKN007 OVC036 06/04 A2980
RMK AO2 SLP089 P0006 60015 T00560044 10078 20056 56006





000
SAUS46 KPDT 010522
MTRMEH
SPECI KMEH 010521Z AUTO 00000KT 8SM -RA BKN006 BKN010 OVC035 06/04
A2981 RMK AO2 P0003 T00560044





000
SAUS46 KPDT 010517 COR
MTRMEH
SPECI KMEH 010510Z AUTO 00000KT 5SM -RA BR FEW005 BKN031 OVC038
06/04 A2981 RMK AO2 P0002 T00560044





000
SAUS46 KPDT 010457
MTRMEH
METAR KMEH 010456Z AUTO 00000KT 5SM -RA BR BKN009 OVC034 06/05 A2981
RMK AO2 SLP095 P0008 T00560050





000
SAUS46 KPDT 010425
MTRMEH
SPECI KMEH 010424Z AUTO 00000KT 3SM RA BR OVC006 06/05 A2981 RMK AO2
CIG 004V008 P0002 T00560050





000
SAUS46 KPDT 010359
MTRMEH
METAR KMEH 010356Z AUTO 00000KT 9SM -RA OVC003 06/05 A2981 RMK AO2
RAB40 SLP099 P0000 T00610050





000
SAUS46 KPDT 010359
MTRMEH
METAR KMEH 010356Z AUTO 00000KT 9SM -RA OVC003 06/05 A2981 RMK AO2
RAB40 SLP099 P0000 T00610050





000
SAUS46 KPDT 010329
MTRMEH
SPECI KMEH 010328Z AUTO VRB03KT 10SM OVC003 06/05 A2981 RMK AO2
T00610050





000
SAUS46 KPDT 010329
MTRMEH
SPECI KMEH 010328Z AUTO VRB03KT 10SM OVC003 06/05 A2981 RMK AO2
T00610050





000
SAUS46 KPDT 010258
MTRMEH
METAR KMEH 010256Z AUTO 00000KT 10SM OVC005 07/06 A2982 RMK AO2
RAE35 CIG 004V010 SLP103 P0001 60001 T00670056 51006





000
SAUS46 KPDT 010233 COR
MTRMEH
SPECI KMEH 010226Z AUTO 00000KT 10SM -RA BKN008 BKN060 OVC080 06/06
A2982 RMK AO2 P0001 T00610056





000
SAUS46 KPDT 010211
MTRMEH
SPECI KMEH 010208Z AUTO 00000KT 10SM -RA FEW008 BKN055 OVC085 06/06
A2981 RMK AO2 P0001 T00610056





000
SAUS46 KPDT 010157
MTRMEH
METAR KMEH 010156Z AUTO 00000KT 10SM -RA SCT010 BKN047 OVC065 07/06
A2982 RMK AO2 SLP102 P0000 T00670056





000
SAUS46 KPDT 010153
MTRMEH
SPECI KMEH 010152Z AUTO 00000KT 10SM -RA BKN010 BKN045 OVC065 07/06
A2982 RMK AO2 P0000





000
SAUS46 KPDT 010103 COR
MTRMEH
METAR KMEH 010056Z AUTO 00000KT 10SM -RA BKN070 OVC095 07/05 A2980
RMK AO2 RAB06 SLP095 P0000 T00720050





000
SAUS46 KPDT 312358
MTRMEH
METAR KMEH 312356Z AUTO 00000KT 10SM OVC090 08/04 A2981 RMK AO2
SLP097 60002 T00780044 10150 20078 58004





000
SAUS46 KPDT 312257
MTRMEH
METAR KMEH 312256Z AUTO 00000KT 10SM SCT080 OVC100 08/04 A2982 RMK
AO2 SLP101 T00830044





000
SAUS46 KPDT 312257
MTRMEH
METAR KMEH 312256Z AUTO 00000KT 10SM SCT080 OVC100 08/04 A2982 RMK
AO2 SLP101 T00830044





000
SAUS46 KPDT 312236
MTRMEH
SPECI KMEH 312235Z AUTO 00000KT 10SM FEW013 SCT060 OVC080 08/05
A2983 RMK AO2 T00830050





000
SAUS46 KPDT 312236
MTRMEH
SPECI KMEH 312235Z AUTO 00000KT 10SM FEW013 SCT060 OVC080 08/05
A2983 RMK AO2 T00830050





000
SAUS46 KPDT 312218
MTRMEH
SPECI KMEH 312216Z AUTO VRB03KT 10SM BKN013 BKN018 OVC060 08/06
A2984 RMK AO2 T00830056





000
SAUS46 KPDT 312157
MTRMEH
METAR KMEH 312156Z AUTO VRB05KT 10SM OVC015 09/06 A2983 RMK AO2
SLP103 T00890056





000
SAUS46 KPDT 312131
MTRMEH
SPECI KMEH 312130Z AUTO 00000KT 10SM BKN015 OVC070 09/06 A2983 RMK
AO2 T00890056





000
SAUS46 KPDT 312058
MTRMEH
METAR KMEH 312056Z AUTO 28005KT 10SM FEW007 BKN014 OVC060 09/07
A2982 RMK AO2 RAE07 SLP099 P0000 60002 T00890067 53018





000
SAUS46 KPDT 312014
MTRMEH
SPECI KMEH 312013Z AUTO VRB03KT 10SM BKN008 OVC055 09/08 A2981 RMK
AO2 RAE07 CIG 006V012 P0000 T00940078





000
SAUS46 KPDT 311959
MTRMEH
METAR KMEH 311956Z AUTO VRB05KT 6SM -RA BR BKN055 OVC075 09/07 A2981
RMK AO2 RAB36 SLP093 P0002 T00940072





000
SAUS46 KPDT 311857
MTRMEH
METAR KMEH 311856Z AUTO 00000KT 10SM BKN075 OVC110 14/04 A2977 RMK
AO2 SLP068 T01440039





000
SAUS46 KPDT 311757
MTRMEH
METAR KMEH 311756Z AUTO 00000KT 10SM BKN080 12/08 A2976 RMK AO2
SLP067 T01170078 10117 20056 50004





000
SAUS46 KPDT 311657
MTRMEH
METAR KMEH 311656Z AUTO 00000KT 10SM BKN070 BKN120 08/07 A2977 RMK
AO2 SLP074 T00830067





000
SAUS46 KPDT 311657
MTRMEH
METAR KMEH 311656Z AUTO 00000KT 10SM BKN070 BKN120 08/07 A2977 RMK
AO2 SLP074 T00830067





000
SAUS46 KPDT 311557
MTRMEH
METAR KMEH 311556Z AUTO 00000KT 7SM BKN100 OVC120 07/06 A2976 RMK
AO2 SLP071 T00670056





000
SAUS46 KPDT 311457
MTRMEH
METAR KMEH 311456Z AUTO 00000KT 5SM BR CLR 06/05 A2975 RMK AO2
SLP072 T00560050 58009





000
SAUS46 KPDT 311357
MTRMEH
METAR KMEH 311356Z AUTO 00000KT 4SM BR CLR 06/05 A2977 RMK AO2
SLP075 T00610050





000
SAUS46 KPDT 311257
MTRMEH
METAR KMEH 311256Z AUTO 00000KT 4SM BR FEW110 06/05 A2978 RMK AO2
SLP080 T00560050





000
SAUS46 KPDT 311240
MTRMEH
SPECI KMEH 311239Z AUTO 00000KT 3SM BR SCT002 06/05 A2978 RMK AO2
T00610050





000
SAUS46 KPDT 311238 COR
MTRMEH
SPECI KMEH 311231Z AUTO 00000KT 4SM BR BKN002 BKN110 06/05 A2978 RMK
AO2 T00610050





000
SAUS46 KPDT 311157
MTRMEH
METAR KMEH 311156Z AUTO 00000KT 4SM BR SCT002 07/06 A2978 RMK AO2
SLP079 7//// T00670061 10139 20067 56008





000
SAUS46 KPDT 311155
MTRMEH
SPECI KMEH 311152Z AUTO 00000KT 3SM BR SCT002 07/06 A2978 RMK AO2





000
SAUS46 KPDT 311137
MTRMEH
SPECI KMEH 311134Z AUTO 00000KT 3SM BR OVC002 07/06 A2979 RMK AO2
T00670061





000
SAUS46 KPDT 311113
MTRMEH
SPECI KMEH 311112Z AUTO 00000KT 2SM BR OVC002 07/07 A2979 RMK AO2
T00720067





000
SAUS46 KPDT 311058
MTRMEH
METAR KMEH 311056Z AUTO 00000KT 1SM BR OVC002 07/07 A2979 RMK AO2
SLP079 T00720067





000
SAUS46 KPDT 311017
MTRMEH
SPECI KMEH 311016Z AUTO 00000KT 1 1/4SM BR OVC003 07/07 A2981 RMK
AO2 T00720067





000
SAUS46 KPDT 310959
MTRMEH
METAR KMEH 310956Z AUTO 00000KT 1/2SM FG VV002 07/07 A2981 RMK AO2
SLP086 T00720067





000
SAUS46 KPDT 310924
MTRMEH
SPECI KMEH 310923Z AUTO 00000KT 1/2SM FG VV002 07/07 A2982 RMK AO2
T00720067





000
SAUS46 KPDT 310912
MTRMEH
SPECI KMEH 310911Z AUTO VRB03KT 1 3/4SM BR OVC003 08/07 A2982 RMK
AO2 T00780067





000
SAUS46 KPDT 310903 COR
MTRMEH
METAR KMEH 310856Z AUTO 00000KT 4SM BR OVC003 08/07 A2980 RMK AO2
SLP083 T00780067 58005





000
SAUS46 KPDT 310828
MTRMEH
SPECI KMEH 310827Z AUTO 00000KT 2 1/2SM BR OVC004 08/07 A2981 RMK
AO2 T00780067





000
SAUS46 KPDT 310807
MTRMEH
SPECI KMEH 310805Z AUTO 00000KT 6SM BR BKN005 OVC110 08/07 A2982 RMK
AO2 T00830067





000
SAUS46 KPDT 310757
MTRMEH
METAR KMEH 310756Z AUTO 00000KT 7SM SCT005 OVC100 08/06 A2982 RMK
AO2 SLP090 T00830061 401720078





000
SAUS46 KPDT 310657
MTRMEH
METAR KMEH 310656Z AUTO 00000KT 10SM OVC100 12/03 A2981 RMK AO2
SLP084 T01220028





000
SAUS46 KPDT 310557
MTRMEH
METAR KMEH 310556Z AUTO 00000KT 10SM BKN110 13/02 A2982 RMK AO2
SLP087 T01330022 10144 20122 56013





000
SAUS46 KPDT 310459
MTRMEH
METAR KMEH 310456Z AUTO 00000KT 10SM CLR 13/02 A2983 RMK AO2 SLPNO
T01280022





000
SAUS46 KPDT 310459
MTRMEH
METAR KMEH 310456Z AUTO 00000KT 10SM CLR 13/02 A2983 RMK AO2 SLPNO
T01280022





000
SAUS46 KPDT 310404 COR
MTRMEH
METAR KMEH 310356Z AUTO 00000KT 10SM CLR 13/02 A2985 RMK AO2 SLP104
T01280022





000
SAUS46 KPDT 310404 COR
MTRMEH
METAR KMEH 310356Z AUTO 00000KT 10SM CLR 13/02 A2985 RMK AO2 SLP104
T01280022





000
SAUS46 KPDT 310258
MTRMEH
METAR KMEH 310256Z AUTO 00000KT 10SM CLR 13/02 A2987 RMK AO2 SLP107
T01330022 56015





000
SAUS46 KPDT 310203 COR
MTRMEH
METAR KMEH 310156Z AUTO 00000KT 10SM CLR 13/02 A2988 RMK AO2 SLP111
T01330022





000
SAUS46 KPDT 310058
MTRMEH
METAR KMEH 310056Z AUTO 00000KT 10SM BKN120 14/03 A2989 RMK AO2
SLP113 T01390028





000
SAUS46 KPDT 302358
MTRMEH
METAR KMEH 302356Z AUTO 00000KT 10SM CLR 14/04 A2991 RMK AO2 SLP121
T01440039 10172 20122 58012





000
SAUS46 KPDT 302303 COR
MTRMEH
METAR KMEH 302256Z AUTO VRB03KT 10SM SCT120 15/04 A2994 RMK AO2
SLP129 T01500044





000
SAUS46 KPDT 302159
MTRMEH
METAR KMEH 302156Z AUTO 00000KT 10SM BKN110 16/05 A2994 RMK AO2
SLP129 T01560050





000
SAUS46 KPDT 302159
MTRMEH
METAR KMEH 302156Z AUTO 00000KT 10SM BKN110 16/05 A2994 RMK AO2
SLP129 T01560050





000
SAUS46 KPDT 302103 COR
MTRMEH
METAR KMEH 302056Z AUTO 00000KT 10SM BKN110 17/06 A2996 RMK AO2
SLP133 T01670061 58030





000
SAUS46 KPDT 301958
MTRMEH
METAR KMEH 301956Z AUTO VRB03KT 10SM CLR 15/06 A3000 RMK AO2 SLP152
T01500056





000
SAUS46 KPDT 301903 COR
MTRMEH
METAR KMEH 301856Z AUTO VRB03KT 10SM OVC110 13/06 A3003 RMK AO2
SLP164 T01330056





000
SAUS46 KPDT 301757
MTRMEH
METAR KMEH 301756Z AUTO VRB03KT 10SM OVC100 12/06 A3005 RMK AO2
SLP174 6//// T01220061 58014





000
SAUS46 KPDT 301657
MTRMEH
METAR KMEH 301656Z AUTO SCT075 BKN110 A3007 RMK AO2 SLPNO PNO $





000
SAUS46 KPDT 301657
MTRMEH
METAR KMEH 301656Z AUTO SCT075 BKN110 A3007 RMK AO2 SLPNO PNO $





000
SAUS46 KPDT 301557
MTRMEH
METAR KMEH 301556Z AUTO 00000KT 10SM -RA OVC060 08/08 A3009 RMK AO2
SLP192 P0002 T00830078





000
SAUS46 KPDT 301457
MTRMEH
METAR KMEH 301456Z AUTO 00000KT 9SM -RA BKN070 OVC090 08/07 A3010
RMK AO2 SLP197 P0001 60001 T00830067 53005





000
SAUS46 KPDT 301359
MTRMEH
METAR KMEH 301356Z AUTO 00000KT 10SM -RA BKN075 OVC095 09/05 A3009
RMK AO2 RAB28 SLP192 P0000 T00940050





000
SAUS46 KPDT 301259
MTRMEH
METAR KMEH 301256Z AUTO 00000KT 10SM OVC070 10/04 A3008 RMK AO2
SLP186 T01000044





000
SAUS46 KPDT 301157
MTRMEH
METAR KMEH 301156Z AUTO 00000KT 10SM FEW100 09/04 A3008 RMK AO2
SLP185 60000 T00940044 10100 20078 58013





000
SAUS46 KPDT 301103 COR
MTRMEH
METAR KMEH 301056Z AUTO 00000KT 10SM BKN080 BKN110 09/04 A3010 RMK
AO2 RAB10E31 SLP187 P0000 T00940044





000
SAUS46 KPDT 300958
MTRMEH
METAR KMEH 300956Z AUTO 00000KT 10SM OVC080 09/05 A3012 RMK AO2
SLP195 T00940050





000
SAUS46 KPDT 300857
MTRMEH
METAR KMEH 300856Z AUTO 00000KT 10SM BKN080 OVC090 09/05 A3013 RMK
AO2 RAE08B29E39 SLP196 P0000 60000 T00890050 58008





000
SAUS46 KPDT 300758
MTRMEH
METAR KMEH 300756Z AUTO 00000KT 10SM -RA OVC060 08/06 A3015 RMK AO2
RAB38 SLP206 P0000 T00780056 401390017





000
SAUS46 KPDT 300703 COR
MTRMEH
METAR KMEH 300656Z AUTO 00000KT 10SM BKN095 OVC110 08/04 A3015 RMK
AO2 SLP207 T00830044





000
SAUS46 KPDT 300559
MTRMEH
METAR KMEH 300556Z AUTO 00000KT 10SM OVC110 08/04 A3015 RMK AO2
SLP211 T00830044 10094 20067 55002





000
SAUS46 KPDT 300459
MTRMEH
METAR KMEH 300456Z AUTO 00000KT 10SM FEW095 BKN120 08/05 A3015 RMK
AO2 SLP218 T00780050





000
SAUS46 KPDT 300459
MTRMEH
METAR KMEH 300456Z AUTO 00000KT 10SM FEW095 BKN120 08/05 A3015 RMK
AO2 SLP218 T00780050





000
SAUS46 KPDT 300359
MTRMEH
METAR KMEH 300356Z AUTO 00000KT 10SM OVC095 07/06 A3015 RMK AO2
SLP222 T00720056





000
SAUS46 KPDT 300258
MTRMEH
METAR KMEH 300256Z AUTO 00000KT 10SM FEW100 07/06 A3016 RMK AO2
SLP227 T00670056 56003





000
SAUS46 KPDT 300159
MTRMEH
METAR KMEH 300156Z AUTO 00000KT 10SM FEW110 07/06 A3017 RMK AO2
SLP228 T00720061





000
SAUS46 KPDT 300103 COR
MTRMEH
METAR KMEH 300056Z AUTO 00000KT 10SM BKN120 08/06 A3016 RMK AO2
SLP223 T00830061





000
SAUS46 KPDT 292357
MTRMEH
METAR KMEH 292356Z AUTO 00000KT 10SM CLR 10/07 A3017 RMK AO2 SLP224
T01000067 10139 20100 56006





000
SAUS46 KPDT 292303 COR
MTRMEH
METAR KMEH 292256Z AUTO 00000KT 10SM CLR 12/05 A3017 RMK AO2 SLP221
T01220050





000
SAUS46 KPDT 292157
MTRMEH
METAR KMEH 292156Z AUTO 36003KT 10SM CLR 13/05 A3018 RMK AO2 SLP219
T01280050





000
SAUS46 KPDT 292058
MTRMEH
METAR KMEH 292056Z AUTO 00000KT 10SM FEW049 14/05 A3019 RMK AO2
SLP222 T01390050 58003





000
SAUS46 KPDT 292003 COR
MTRMEH
METAR KMEH 291956Z AUTO 00000KT 10SM SCT039 BKN048 13/05 A3019 RMK
AO2 SLP225 T01280050





000
SAUS46 KPDT 291859
MTRMEH
METAR KMEH 291856Z AUTO 00000KT 10SM FEW038 BKN050 12/06 A3020 RMK
AO2 SLP228 T01220056





000
SAUS46 KPDT 291757
MTRMEH
METAR KMEH 291756Z AUTO 00000KT 10SM CLR 11/08 A3020 RMK AO2 SLP229
T01060078 10106 20017 53011





000
SAUS46 KPDT 291659
MTRMEH
METAR KMEH 291656Z AUTO 00000KT 8SM CLR 06/04 A3018 RMK AO2 SLP228
T00560044





000
SAUS46 KPDT 291557
MTRMEH
METAR KMEH 291556Z AUTO 00000KT 9SM SCT060 03/02 A3018 RMK AO2
SLP235 T00280022





000
SAUS46 KPDT 291529
MTRMEH
SPECI KMEH 291528Z AUTO 00000KT 5SM BR SCT050 OVC060 02/02 A3017 RMK
AO2 T00220017





000
SAUS46 KPDT 291522
MTRMEH
SPECI KMEH 291521Z AUTO 00000KT 2SM BR FEW001 BKN050 OVC060 02/02
A3017 RMK AO2 T00220017





000
SAUS46 KPDT 291512 COR
MTRMEH
SPECI KMEH 291505Z AUTO 00000KT 3/4SM BR FEW001 BKN050 02/02 A3016
RMK AO2 T00220017





000
SAUS46 KPDT 291500
MTRMEH
SPECI KMEH 291459Z AUTO 00000KT 1 3/4SM BR BKN001 BKN050 02/02 A3016
RMK AO2 T00220017





000
SAUS46 KPDT 291457
MTRMEH
METAR KMEH 291456Z AUTO 00000KT 5SM BR BKN001 BKN050 02/01 A3016 RMK
AO2 SLP228 T00220011 53014





000
SAUS46 KPDT 291436
MTRMEH
SPECI KMEH 291435Z AUTO 00000KT 3SM BR OVC001 02/01 A3015 RMK AO2
T00220011





000
SAUS46 KPDT 291433
MTRMEH
SPECI KMEH 291431Z AUTO 00000KT 1 3/4SM BR BKN001 02/02 A3015 RMK
AO2 VIS 1V4 T00220017





000
SAUS46 KPDT 291422
MTRMEH
SPECI KMEH 291421Z AUTO 00000KT 1 3/4SM BR BKN002 02/02 A3015 RMK
AO2 T00220017





000
SAUS46 KPDT 291414
MTRMEH
SPECI KMEH 291413Z AUTO 00000KT 10SM SCT001 02/02 A3015 RMK AO2
T00220017





000
SAUS46 KPDT 291359
MTRMEH
METAR KMEH 291356Z AUTO 00000KT 8SM SCT060 03/02 A3015 RMK AO2
SLP222 T00280017





    US Dept of Commerce
    National Oceanic and Atmospheric Administration
    National Weather Service
    1325 East West Highway
    Silver Spring, MD 20910
    Page Author: NWS Internet Services Team
Disclaimer
Information Quality
Credits
Glossary
Privacy Policy
Freedom of Information Act (FOIA)
About Us
Career Opportunities